Time;durP1;ratioP1;P1;durP2;ratioP2;P2;SDS_P1;SDS_P2;PMS_P1;PMS_P2;Temp;Humidity;BMP_temperature;BMP_pressure;BME280_temperature;BME280_humidity;BME280_pressure;Samples;Min_cycle;Max_cycle;Signal;HPM_P1;HPM_P2
2023/05/22 00:03:42;;;;;;;4.35;3.40;;;23.30;75.20;;;;;;10856485;32;20020;-71
2023/05/22 00:09:45;;;;;;;4.32;2.83;;;23.30;75.30;;;;;;10865646;32;20055;-71
2023/05/22 00:15:48;;;;;;;6.60;3.40;;;23.30;75.40;;;;;;10866574;32;20020;-71
2023/05/22 00:21:50;;;;;;;3.33;2.05;;;23.30;75.60;;;;;;10853277;32;20062;-71
2023/05/22 00:27:52;;;;;;;4.35;2.70;;;23.30;75.90;;;;;;10866170;32;20030;-71
2023/05/22 00:33:54;;;;;;;4.18;2.35;;;23.20;76.00;;;;;;10848698;32;20050;-71
2023/05/22 00:39:56;;;;;;;4.03;2.75;;;23.10;76.00;;;;;;10865885;32;20046;-71
2023/05/22 00:45:58;;;;;;;5.28;3.17;;;23.10;76.10;;;;;;10852019;32;20039;-71
2023/05/22 00:52:01;;;;;;;4.30;2.85;;;23.00;76.20;;;;;;10865655;32;20019;-71
2023/05/22 00:58:08;;;;;;;4.82;2.90;;;23.00;76.10;;;;;;10865374;32;20028;-71
2023/05/22 01:04:11;;;;;;;4.30;2.58;;;22.90;76.50;;;;;;10865209;32;20028;-71
2023/05/22 01:10:13;;;;;;;3.85;2.28;;;22.80;76.60;;;;;;10863510;32;20050;-71
2023/05/22 01:16:45;;;;;;;4.03;2.55;;;22.80;77.10;;;;;;10863254;32;20381;-71
2023/05/22 01:23:02;;;;;;;5.55;3.62;;;22.70;77.20;;;;;;10864573;32;20023;-71
2023/05/22 01:29:07;;;;;;;2.72;2.10;;;22.70;77.60;;;;;;10851153;32;20031;-71
2023/05/22 01:35:12;;;;;;;3.15;2.35;;;22.60;77.50;;;;;;10848951;32;20032;-71
2023/05/22 01:41:15;;;;;;;4.62;3.12;;;22.60;77.40;;;;;;10850673;32;20058;-71
2023/05/22 01:47:17;;;;;;;3.72;2.22;;;22.50;77.20;;;;;;10863892;32;20027;-71
2023/05/22 01:53:41;;;;;;;4.12;2.65;;;22.40;77.20;;;;;;10848551;32;20032;-71
2023/05/22 01:59:48;;;;;;;4.18;2.78;;;22.40;77.10;;;;;;10850519;32;20424;-71
2023/05/22 02:05:54;;;;;;;4.68;3.35;;;22.30;77.20;;;;;;10863444;32;20027;-71
2023/05/22 02:11:58;;;;;;;4.97;2.95;;;22.30;77.30;;;;;;10862791;32;20020;-71
2023/05/22 02:18:09;;;;;;;6.37;3.25;;;22.30;77.50;;;;;;10863062;32;20394;-71
2023/05/22 02:24:11;;;;;;;6.00;2.85;;;22.30;77.50;;;;;;10858707;32;20028;-71
2023/05/22 02:30:14;;;;;;;6.37;2.72;;;22.20;77.50;;;;;;10861431;32;20066;-71
2023/05/22 02:36:16;;;;;;;3.35;2.10;;;22.20;77.50;;;;;;10862706;32;20100;-71
2023/05/22 02:42:21;;;;;;;3.30;1.85;;;22.20;77.40;;;;;;10862368;32;20047;-71
2023/05/22 02:48:23;;;;;;;4.85;2.75;;;22.20;77.40;;;;;;10862171;32;20334;-71
2023/05/22 02:54:26;;;;;;;4.00;2.45;;;22.20;77.50;;;;;;10862151;32;20023;-71
2023/05/22 03:00:28;;;;;;;4.62;2.42;;;22.10;77.50;;;;;;10861947;32;20042;-71
2023/05/22 03:06:31;;;;;;;2.70;1.90;;;22.10;77.50;;;;;;10861737;32;20024;-71
2023/05/22 03:12:34;;;;;;;4.22;2.65;;;22.00;77.50;;;;;;10861616;32;20024;-71
2023/05/22 03:18:36;;;;;;;4.35;2.22;;;22.00;77.50;;;;;;10861082;32;20042;-71
2023/05/22 03:24:38;;;;;;;4.28;2.70;;;21.90;77.70;;;;;;10847857;32;20035;-71
2023/05/22 03:30:41;;;;;;;3.53;2.03;;;21.90;77.90;;;;;;10859414;32;20062;-71
2023/05/22 03:36:45;;;;;;;3.67;2.17;;;21.80;78.00;;;;;;10861683;32;20431;-71
2023/05/22 03:42:52;;;;;;;5.43;2.40;;;21.80;78.00;;;;;;10865365;32;20043;-71
2023/05/22 03:48:54;;;;;;;4.45;2.60;;;21.80;78.00;;;;;;10854133;32;20391;-71
2023/05/22 03:54:56;;;;;;;2.70;1.95;;;21.80;78.00;;;;;;10867900;32;20027;-71
2023/05/22 04:01:00;;;;;;;3.40;2.35;;;21.80;78.10;;;;;;10868282;32;20042;-71
2023/05/22 04:07:07;;;;;;;5.28;3.55;;;21.80;78.10;;;;;;10868100;32;20054;-71
2023/05/22 04:13:10;;;;;;;5.93;2.67;;;21.80;78.10;;;;;;10855394;32;20015;-71
2023/05/22 04:19:12;;;;;;;4.03;2.22;;;21.80;78.20;;;;;;10866782;32;20020;-71
2023/05/22 04:25:15;;;;;;;3.45;2.03;;;21.70;78.20;;;;;;10866720;32;20042;-71
2023/05/22 04:31:17;;;;;;;4.00;2.83;;;21.70;78.30;;;;;;10853139;32;20040;-71
2023/05/22 04:37:19;;;;;;;3.10;2.10;;;21.70;78.30;;;;;;10866654;32;20042;-71
2023/05/22 04:43:25;;;;;;;4.95;3.03;;;21.70;78.20;;;;;;10852564;32;20043;-71
2023/05/22 04:49:27;;;;;;;3.15;2.20;;;21.70;78.30;;;;;;10866819;32;20054;-71
2023/05/22 04:55:32;;;;;;;3.37;2.15;;;21.70;78.40;;;;;;10852979;32;20413;-71
2023/05/22 05:01:36;;;;;;;3.50;2.58;;;21.80;78.40;;;;;;10866540;32;20412;-71
2023/05/22 05:07:43;;;;;;;5.90;2.95;;;21.80;78.80;;;;;;10862406;32;20291;-71
2023/05/22 05:13:47;;;;;;;4.12;3.12;;;21.90;78.70;;;;;;10853746;32;20019;-71
2023/05/22 05:19:49;;;;;;;4.35;3.00;;;22.00;78.90;;;;;;10864834;32;20334;-71
2023/05/22 05:25:51;;;;;;;3.72;2.05;;;22.00;79.00;;;;;;10862451;32;20329;-71
2023/05/22 05:31:54;;;;;;;3.80;2.72;;;22.10;79.10;;;;;;10865178;32;20020;-71
2023/05/22 05:37:57;;;;;;;3.87;2.15;;;22.20;79.20;;;;;;10850566;32;20050;-71
2023/05/22 05:44:00;;;;;;;4.35;2.45;;;22.30;79.10;;;;;;10865403;32;20444;-71
2023/05/22 05:50:03;;;;;;;3.60;2.17;;;22.50;78.90;;;;;;10862570;32;20069;-71
2023/05/22 05:56:07;;;;;;;4.30;2.70;;;22.60;79.00;;;;;;10864963;32;20058;-71
2023/05/22 06:02:10;;;;;;;4.75;2.75;;;22.70;78.70;;;;;;10864757;32;20424;-71
2023/05/22 06:08:12;;;;;;;2.95;1.92;;;22.80;78.50;;;;;;10862076;32;20023;-71
2023/05/22 06:14:15;;;;;;;2.40;1.83;;;22.90;78.40;;;;;;10846531;32;20056;-71
2023/05/22 06:20:17;;;;;;;4.87;2.65;;;23.00;78.40;;;;;;10843997;32;20050;-71
2023/05/22 06:26:20;;;;;;;7.40;3.30;;;23.10;77.90;;;;;;10824422;33;20028;-70
2023/05/22 06:32:23;;;;;;;3.08;1.85;;;23.30;78.00;;;;;;10825740;33;20445;-71
2023/05/22 06:38:26;;;;;;;4.57;2.87;;;23.30;77.80;;;;;;10825416;33;20056;-71
2023/05/22 06:44:29;;;;;;;5.72;3.03;;;23.50;77.50;;;;;;10826008;33;20024;-71
2023/05/22 06:50:31;;;;;;;4.60;2.62;;;23.60;77.30;;;;;;10813231;32;20028;-71
2023/05/22 06:56:33;;;;;;;6.43;2.42;;;23.70;77.30;;;;;;10811743;33;20046;-71
2023/05/22 07:02:36;;;;;;;6.85;2.92;;;23.80;76.70;;;;;;10825456;33;20060;-71
2023/05/22 07:08:41;;;;;;;6.35;3.72;;;23.80;76.10;;;;;;10812450;33;20023;-71
2023/05/22 07:14:44;;;;;;;6.25;4.45;;;24.00;75.40;;;;;;10811110;33;20050;-70
2023/05/22 07:20:46;;;;;;;4.80;3.00;;;24.10;74.20;;;;;;10823828;33;20078;-71
2023/05/22 07:26:49;;;;;;;10.05;4.70;;;24.20;73.70;;;;;;10610069;27;7227184;-71
2023/05/22 07:32:51;;;;;;;10.65;4.97;;;24.30;74.40;;;;;;10825277;33;20024;-72
2023/05/22 07:38:54;;;;;;;7.55;4.75;;;24.30;72.60;;;;;;10814710;33;20062;-71
2023/05/22 07:44:56;;;;;;;5.75;3.42;;;24.50;72.00;;;;;;10819927;33;20056;-70
2023/05/22 07:50:58;;;;;;;5.70;4.30;;;24.50;71.80;;;;;;10823638;33;20062;-70
2023/05/22 07:57:04;;;;;;;6.12;4.30;;;24.70;70.30;;;;;;10824739;33;20059;-71
2023/05/22 08:03:07;;;;;;;7.22;4.20;;;24.80;69.90;;;;;;10823563;33;20090;-74
2023/05/22 08:09:09;;;;;;;6.82;3.80;;;24.90;69.40;;;;;;10807763;33;20325;-72
2023/05/22 08:15:11;;;;;;;7.57;4.45;;;25.00;69.10;;;;;;10823150;33;20055;-71
2023/05/22 08:21:13;;;;;;;4.93;3.08;;;25.20;68.40;;;;;;10822981;33;20012;-72
2023/05/22 08:27:15;;;;;;;7.40;4.62;;;25.30;67.00;;;;;;10810240;32;20036;-73
2023/05/22 08:33:18;;;;;;;6.97;4.80;;;25.30;67.30;;;;;;10827236;33;20016;-72
2023/05/22 08:39:20;;;;;;;5.10;3.75;;;25.40;66.00;;;;;;10828965;33;20024;-71
2023/05/22 08:45:24;;;;;;;8.05;6.20;;;25.50;65.30;;;;;;10829768;33;20024;-72
2023/05/22 08:51:33;;;;;;;9.55;5.53;;;25.60;67.10;;;;;;10829631;33;20051;-70
2023/05/22 08:57:35;;;;;;;6.70;4.47;;;25.70;66.00;;;;;;10807928;33;20350;-74
2023/05/22 09:03:38;;;;;;;10.30;5.70;;;25.80;65.10;;;;;;10827568;33;20075;-71
2023/05/22 09:09:40;;;;;;;9.85;5.43;;;25.90;66.00;;;;;;10828521;33;20047;-72
2023/05/22 09:15:42;;;;;;;9.07;5.82;;;26.00;67.30;;;;;;10826502;33;20325;-72
2023/05/22 09:21:44;;;;;;;9.15;5.55;;;26.10;68.10;;;;;;10828817;33;20008;-71
2023/05/22 09:28:10;;;;;;;9.30;6.30;;;26.20;66.90;;;;;;10827639;33;20381;-73
2023/05/22 09:34:16;;;;;;;11.52;7.05;;;26.30;67.30;;;;;;10777016;33;20058;-71
2023/05/22 09:40:19;;;;;;;8.15;5.30;;;26.50;67.10;;;;;;10791325;33;20024;-72
2023/05/22 09:46:28;;;;;;;9.07;6.55;;;26.60;66.00;;;;;;10788651;33;20032;-71
2023/05/22 09:52:36;;;;;;;9.52;5.68;;;26.70;65.60;;;;;;10791322;33;20051;-71
2023/05/22 09:58:42;;;;;;;8.10;5.10;;;26.80;65.00;;;;;;10786152;33;20039;-72
2023/05/22 10:04:47;;;;;;;10.00;5.97;;;26.80;64.40;;;;;;10789638;33;20036;-70
2023/05/22 10:10:52;;;;;;;17.80;6.03;;;26.90;63.00;;;;;;10789190;33;20051;-70
2023/05/22 10:16:56;;;;;;;7.47;5.03;;;27.00;67.10;;;;;;10790506;33;20390;-70
2023/05/22 10:23:02;;;;;;;9.68;5.05;;;27.10;65.10;;;;;;10790247;33;20021;-72
2023/05/22 10:29:11;;;;;;;8.52;6.30;;;27.30;63.50;;;;;;10758831;32;20033;-71
2023/05/22 10:35:18;;;;;;;6.32;4.72;;;27.30;60.40;;;;;;10751577;33;20078;-70
2023/05/22 10:41:22;;;;;;;7.68;4.65;;;27.40;58.80;;;;;;10753395;33;20421;-70
2023/05/22 10:47:25;;;;;;;7.93;5.05;;;27.60;60.40;;;;;;10749897;33;20024;-70
2023/05/22 10:53:31;;;;;;;7.72;4.70;;;27.80;59.70;;;;;;10753129;33;20083;-71
2023/05/22 10:59:34;;;;;;;7.12;5.25;;;28.00;58.00;;;;;;10749895;33;20059;-71
2023/05/22 11:05:41;;;;;;;7.68;4.82;;;28.10;57.10;;;;;;10749105;33;20056;-71
2023/05/22 11:11:43;;;;;;;7.50;4.30;;;28.30;56.10;;;;;;10751141;33;20420;-71
2023/05/22 11:17:51;;;;;;;7.40;4.25;;;28.50;55.80;;;;;;10751352;33;20335;-71
2023/05/22 11:23:53;;;;;;;;;;;28.70;54.80;;;;;;10750026;32;20055;-71
2023/05/22 11:29:55;;;;;;;6.18;4.07;;;28.80;55.70;;;;;;10751571;33;19927;-71
2023/05/22 11:36:02;;;;;;;10.68;4.85;;;29.00;54.30;;;;;;10814074;32;20071;-73
2023/05/22 11:42:06;;;;;;;10.10;4.53;;;29.20;53.10;;;;;;10751972;33;20016;-70
2023/05/22 11:48:08;;;;;;;6.30;4.05;;;29.30;52.20;;;;;;10751742;33;20031;-70
2023/05/22 11:54:10;;;;;;;5.47;4.20;;;29.30;52.40;;;;;;10751720;33;20020;-71
2023/05/22 12:00:13;;;;;;;8.45;4.87;;;29.40;53.80;;;;;;10751053;33;20044;-71
2023/05/22 12:06:17;;;;;;;10.82;5.95;;;29.30;54.60;;;;;;10756954;33;20012;-70
2023/05/22 12:12:23;;;;;;;7.85;5.72;;;29.30;52.80;;;;;;10756668;33;20032;-70
2023/05/22 12:18:38;;;;;;;7.95;5.70;;;29.30;53.00;;;;;;10757582;33;20395;-70
2023/05/22 12:24:47;;;;;;;7.45;4.45;;;29.30;55.00;;;;;;10756579;33;20032;-71
2023/05/22 12:30:54;;;;;;;6.90;4.60;;;29.30;53.70;;;;;;10757014;33;20016;-70
2023/05/22 12:37:01;;;;;;;6.32;4.07;;;29.40;52.20;;;;;;10756851;33;20079;-70
2023/05/22 12:43:03;;;;;;;6.20;4.57;;;29.50;51.10;;;;;;10757430;33;20024;-70
2023/05/22 12:49:05;;;;;;;8.40;5.55;;;29.40;50.20;;;;;;10756155;33;20509;-71
2023/05/22 12:55:21;;;;;;;7.60;4.28;;;29.40;53.00;;;;;;10756553;33;20040;-72
2023/05/22 13:01:26;;;;;;;8.43;6.00;;;29.30;52.50;;;;;;10755598;33;20028;-71
2023/05/22 13:07:28;;;;;;;10.35;4.57;;;29.40;50.70;;;;;;10755343;33;20024;-70
2023/05/22 13:13:30;;;;;;;8.05;4.60;;;29.40;50.60;;;;;;10755111;33;20424;-71
2023/05/22 13:19:33;;;;;;;6.60;3.95;;;29.40;49.70;;;;;;10742768;33;20013;-71
2023/05/22 13:25:35;;;;;;;6.65;4.68;;;29.40;49.60;;;;;;10755102;33;20047;-72
2023/05/22 13:31:37;;;;;;;8.93;4.35;;;29.40;51.50;;;;;;10755486;33;20051;-71
2023/05/22 13:37:39;;;;;;;7.00;4.65;;;29.30;50.40;;;;;;10754153;33;20013;-71
2023/05/22 13:43:42;;;;;;;9.90;6.03;;;29.30;49.70;;;;;;10755100;33;20029;-73
2023/05/22 13:49:48;;;;;;;7.05;4.72;;;29.30;50.80;;;;;;10788839;33;20350;-70
2023/05/22 13:55:54;;;;;;;8.23;4.95;;;29.30;51.00;;;;;;10790752;33;20012;-71
2023/05/22 14:02:14;;;;;;;7.85;5.20;;;29.10;51.30;;;;;;10787719;33;20395;-70
2023/05/22 14:08:16;;;;;;;7.32;4.75;;;29.20;49.90;;;;;;10790339;33;20047;-71
2023/05/22 14:14:22;;;;;;;5.47;4.12;;;29.10;51.80;;;;;;10786305;33;20017;-71
2023/05/22 14:20:25;;;;;;;4.63;2.93;;;29.10;50.80;;;;;;10777583;33;20288;-70
2023/05/22 14:26:27;;;;;;;6.15;4.57;;;29.10;50.20;;;;;;10788565;33;20083;-71
2023/05/22 14:32:29;;;;;;;6.28;4.20;;;29.10;50.50;;;;;;10788917;33;20024;-72
2023/05/22 14:38:34;;;;;;;7.12;4.78;;;29.10;51.90;;;;;;10789901;33;20425;-71
2023/05/22 14:44:36;;;;;;;15.68;3.62;;;29.10;50.20;;;;;;10789755;33;20485;-72
2023/05/22 14:50:39;;;;;;;12.07;4.57;;;29.10;49.70;;;;;;10787322;33;20032;-71
2023/05/22 14:56:46;;;;;;;9.85;3.90;;;29.10;50.30;;;;;;10788990;33;20021;-71
2023/05/22 15:02:48;;;;;;;8.68;5.15;;;29.10;50.90;;;;;;10789321;33;20432;-70
2023/05/22 15:08:54;;;;;;;5.15;2.83;;;29.10;52.10;;;;;;10785701;33;20345;-71
2023/05/22 15:14:56;;;;;;;12.98;4.93;;;29.10;50.60;;;;;;10785140;33;20113;-72
2023/05/22 15:20:59;;;;;;;7.37;3.53;;;29.10;51.80;;;;;;10785897;33;20050;-71
2023/05/22 15:27:02;;;;;;;5.18;3.45;;;29.10;51.00;;;;;;10814715;27;20028;-72
2023/05/22 15:33:04;;;;;;;6.90;3.35;;;29.30;49.50;;;;;;10824763;33;20016;-71
2023/05/22 15:39:07;;;;;;;6.87;3.90;;;29.30;49.50;;;;;;10824964;33;20012;-72
2023/05/22 15:45:09;;;;;;;10.30;3.42;;;29.30;49.10;;;;;;10821255;33;20394;-72
2023/05/22 15:51:11;;;;;;;6.70;3.30;;;29.40;48.50;;;;;;10818648;33;20066;-72
2023/05/22 15:57:14;;;;;;;5.53;3.58;;;29.40;48.20;;;;;;10811915;33;20034;-72
2023/05/22 16:03:16;;;;;;;5.03;3.40;;;29.40;48.30;;;;;;10822360;33;20054;-72
2023/05/22 16:09:18;;;;;;;8.55;3.45;;;29.50;48.30;;;;;;10824052;33;20025;-72
2023/05/22 16:15:46;;;;;;;5.35;3.00;;;29.50;47.90;;;;;;10809774;33;20038;-72
2023/05/22 16:21:48;;;;;;;6.07;2.95;;;29.60;47.70;;;;;;10819571;33;20016;-72
2023/05/22 16:27:50;;;;;;;5.45;3.28;;;29.50;48.00;;;;;;10823135;33;20050;-72
2023/05/22 16:33:53;;;;;;;4.30;2.72;;;29.60;48.20;;;;;;10819169;33;20035;-72
2023/05/22 16:39:55;;;;;;;8.80;3.75;;;29.60;48.20;;;;;;10821221;33;20314;-73
2023/05/22 16:45:57;;;;;;;8.32;3.42;;;29.60;48.00;;;;;;10820244;33;20024;-72
2023/05/22 16:52:00;;;;;;;5.25;2.75;;;29.50;47.90;;;;;;10827719;32;20022;-72
2023/05/22 16:58:02;;;;;;;4.82;2.90;;;29.50;48.20;;;;;;10825690;33;20330;-72
2023/05/22 17:04:04;;;;;;;3.65;2.80;;;29.40;48.00;;;;;;10824543;33;20047;-73
2023/05/22 17:10:06;;;;;;;4.62;3.12;;;29.30;48.30;;;;;;10825308;33;20042;-72
2023/05/22 17:16:09;;;;;;;7.15;3.78;;;29.30;48.60;;;;;;10829095;33;20020;-72
2023/05/22 17:22:10;;;;;;;3.75;2.37;;;29.30;48.70;;;;;;10825326;33;20354;-72
2023/05/22 17:28:13;;;;;;;5.60;3.58;;;29.20;48.90;;;;;;10827605;32;20100;-71
2023/05/22 17:34:15;;;;;;;5.47;3.30;;;29.20;48.80;;;;;;10828646;33;20342;-72
2023/05/22 17:40:18;;;;;;;5.57;3.75;;;29.10;48.90;;;;;;10810068;33;20432;-72
2023/05/22 17:46:20;;;;;;;5.12;2.85;;;29.10;49.20;;;;;;10820352;33;20414;-72
2023/05/22 17:52:22;;;;;;;5.60;3.22;;;29.20;49.10;;;;;;10819607;33;20059;-72
2023/05/22 17:58:23;;;;;;;5.20;2.67;;;29.80;48.60;;;;;;10809337;33;20028;-72
2023/05/22 18:04:25;;;;;;;4.70;2.97;;;30.10;47.90;;;;;;10821686;32;20035;-72
2023/05/22 18:10:27;;;;;;;7.55;3.12;;;29.50;48.90;;;;;;10821742;33;20046;-72
2023/05/22 18:16:29;;;;;;;4.20;2.15;;;28.90;50.30;;;;;;10807027;33;20032;-72
2023/05/22 18:22:32;;;;;;;4.25;2.65;;;28.50;51.00;;;;;;10783417;33;20354;-72
2023/05/22 18:28:34;;;;;;;4.60;2.28;;;28.30;51.50;;;;;;10772105;33;20041;-72
2023/05/22 18:34:36;;;;;;;4.05;2.53;;;28.00;52.10;;;;;;10785250;33;20037;-72
2023/05/22 18:40:41;;;;;;;4.53;2.35;;;27.80;52.50;;;;;;10786777;33;20074;-72
2023/05/22 18:46:43;;;;;;;2.47;1.83;;;27.60;53.30;;;;;;10788246;33;20020;-72
2023/05/22 18:52:46;;;;;;;4.72;3.12;;;27.40;54.20;;;;;;10784517;33;20013;-72
2023/05/22 18:58:47;;;;;;;5.72;2.78;;;27.30;55.80;;;;;;10786324;33;20064;-72
2023/05/22 19:04:50;;;;;;;4.32;2.30;;;27.20;56.70;;;;;;10785303;33;20059;-72
2023/05/22 19:10:53;;;;;;;6.00;2.53;;;27.10;57.10;;;;;;10787245;33;20346;-72
2023/05/22 19:16:58;;;;;;;4.50;2.10;;;26.90;57.60;;;;;;10787489;33;20021;-72
2023/05/22 19:23:01;;;;;;;3.60;2.00;;;26.80;58.00;;;;;;10787527;33;20429;-72
2023/05/22 19:29:03;;;;;;;4.37;2.40;;;26.80;58.70;;;;;;10773753;33;20063;-72
2023/05/22 19:35:06;;;;;;;3.92;2.42;;;26.70;59.20;;;;;;10787009;33;20050;-72
2023/05/22 19:41:08;;;;;;;5.45;2.33;;;26.60;60.00;;;;;;10786594;33;20040;-72
2023/05/22 19:47:10;;;;;;;3.12;2.17;;;26.50;60.30;;;;;;10774000;33;20025;-72
2023/05/22 19:53:14;;;;;;;2.35;1.55;;;26.40;60.90;;;;;;10786975;33;20039;-72
2023/05/22 19:59:16;;;;;;;4.15;2.53;;;26.30;61.40;;;;;;10786790;33;20028;-72
2023/05/22 20:05:18;;;;;;;6.47;2.47;;;26.20;61.90;;;;;;10786626;33;20086;-72
2023/05/22 20:11:20;;;;;;;4.62;2.95;;;26.20;62.50;;;;;;10786583;33;20013;-72
2023/05/22 20:17:22;;;;;;;4.97;2.45;;;26.20;63.00;;;;;;10786478;33;20012;-72
2023/05/22 20:23:24;;;;;;;2.62;1.75;;;26.10;63.60;;;;;;10782807;32;20398;-72
2023/05/22 20:29:26;;;;;;;5.93;2.37;;;26.00;63.80;;;;;;10792554;33;20039;-72
2023/05/22 20:35:32;;;;;;;4.90;2.85;;;25.80;64.10;;;;;;10788489;33;20063;-72
2023/05/22 20:41:34;;;;;;;4.60;2.75;;;25.80;64.60;;;;;;10792337;33;20017;-72
2023/05/22 20:47:38;;;;;;;5.12;2.72;;;25.70;64.80;;;;;;10775282;33;20024;-72
2023/05/22 20:53:40;;;;;;;5.03;2.70;;;25.70;65.00;;;;;;10791861;33;20012;-72
2023/05/22 20:59:53;;;;;;;3.47;2.60;;;25.50;66.90;;;;;;10803459;32;20047;-72
2023/05/22 21:05:55;;;;;;;5.53;3.50;;;25.40;67.10;;;;;;10828126;33;20035;-72
2023/05/22 21:11:57;;;;;;;7.12;3.65;;;25.30;68.20;;;;;;10825162;33;20023;-72
2023/05/22 21:18:00;;;;;;;5.00;3.03;;;25.30;68.70;;;;;;10827967;33;20012;-72
2023/05/22 21:24:02;;;;;;;5.50;2.95;;;25.10;68.60;;;;;;10827607;32;20023;-72
2023/05/22 21:30:05;;;;;;;6.18;3.47;;;25.00;68.80;;;;;;10814227;33;20054;-72
2023/05/22 21:36:07;;;;;;;4.70;3.15;;;25.00;68.90;;;;;;10827177;32;20046;-72
2023/05/22 21:42:09;;;;;;;6.30;3.55;;;25.00;69.00;;;;;;10825935;33;20052;-72
2023/05/22 21:48:11;;;;;;;4.82;3.28;;;25.00;69.20;;;;;;10826261;33;20024;-71
2023/05/22 21:54:13;;;;;;;10.02;4.10;;;24.90;69.70;;;;;;10826938;33;20012;-72
2023/05/22 22:00:16;;;;;;;8.82;3.40;;;24.90;70.00;;;;;;10825988;33;20023;-72
2023/05/22 22:06:17;;;;;;;4.60;3.20;;;24.80;69.90;;;;;;10826580;33;20020;-72
2023/05/22 22:12:19;;;;;;;5.20;3.08;;;24.80;70.10;;;;;;10825979;33;20059;-72
2023/05/22 22:18:21;;;;;;;3.70;3.00;;;24.70;70.30;;;;;;10826362;33;20008;-72
2023/05/22 22:24:24;;;;;;;6.22;4.18;;;24.60;70.50;;;;;;10826087;33;20031;-72
2023/05/22 22:30:25;;;;;;;4.65;3.33;;;24.60;70.60;;;;;;10811940;33;20062;-72
2023/05/22 22:36:56;;;;;;;6.78;4.15;;;24.50;70.70;;;;;;10825776;33;20016;-72
2023/05/22 22:42:58;;;;;;;5.55;3.05;;;24.50;70.80;;;;;;10824750;33;20016;-71
2023/05/22 22:49:00;;;;;;;6.95;4.00;;;24.50;71.00;;;;;;10811586;32;20028;-71
2023/05/22 22:55:06;;;;;;;5.20;3.22;;;24.50;71.00;;;;;;10825526;33;20020;-72
2023/05/22 23:01:08;;;;;;;4.47;2.92;;;24.40;71.10;;;;;;10825720;33;20020;-72
2023/05/22 23:07:10;;;;;;;5.28;3.05;;;24.30;71.30;;;;;;10825422;33;20046;-72
2023/05/22 23:13:12;;;;;;;5.53;3.30;;;24.30;71.50;;;;;;10824328;33;20020;-71
2023/05/22 23:19:14;;;;;;;4.97;3.12;;;24.30;71.80;;;;;;10824080;33;20016;-71
2023/05/22 23:25:16;;;;;;;4.87;3.17;;;24.20;71.70;;;;;;10815432;27;20039;-71
2023/05/22 23:31:24;;;;;;;5.55;3.28;;;24.00;71.90;;;;;;10824577;32;20063;-72
2023/05/22 23:37:26;;;;;;;4.43;3.03;;;23.90;72.30;;;;;;10821683;33;20038;-71
2023/05/22 23:43:28;;;;;;;7.12;3.53;;;23.80;72.40;;;;;;10811368;33;20354;-71
2023/05/22 23:49:30;;;;;;;4.40;3.03;;;23.80;72.70;;;;;;10822659;33;20036;-71
2023/05/22 23:55:32;;;;;;;7.62;3.78;;;23.70;72.80;;;;;;10819992;33;20051;-71
